createdAt,value
2023-02-22T00:01:56.125Z,16.6
2023-02-22T00:07:47.979Z,16.6
2023-02-22T00:13:40.578Z,16.6
2023-02-22T00:19:34.055Z,16.6
2023-02-22T00:25:25.762Z,16.6
2023-02-22T00:31:02.841Z,16.6
2023-02-22T00:36:56.656Z,16.6
2023-02-22T00:42:33.772Z,16.6
2023-02-22T00:48:10.978Z,16.6
2023-02-22T00:53:48.618Z,16.5
2023-02-22T00:59:40.982Z,16.6
2023-02-22T01:05:35.451Z,16.6
2023-02-22T01:11:13.124Z,16.6
2023-02-22T01:17:05.711Z,16.6
2023-02-22T01:22:44.456Z,16.6
2023-02-22T01:28:37.657Z,16.6
2023-02-22T01:34:14.597Z,16.6
2023-02-22T01:39:51.936Z,16.6
2023-02-22T01:45:30.192Z,16.6
2023-02-22T01:51:22.027Z,16.6
2023-02-22T01:57:14.606Z,16.6
2023-02-22T02:03:07.077Z,16.6
2023-02-22T02:08:59.647Z,16.6
2023-02-22T02:14:52.187Z,16.6
2023-02-22T02:20:14.295Z,16.6
2023-02-22T02:25:51.340Z,16.6
2023-02-22T02:31:28.295Z,16.6
2023-02-22T02:37:22.657Z,16.6
2023-02-22T02:42:44.501Z,16.6
2023-02-22T02:48:37.642Z,16.6
2023-02-22T02:54:31.419Z,16.6
2023-02-22T03:00:22.746Z,16.6
2023-02-22T03:06:00.567Z,16.6
2023-02-22T03:11:54.029Z,16.6
2023-02-22T03:17:46.417Z,16.6
2023-02-22T03:23:39.043Z,16.6
2023-02-22T03:29:31.688Z,16.6
2023-02-22T03:35:08.243Z,16.6
2023-02-22T03:40:45.579Z,16.6
2023-02-22T03:46:39.743Z,16.6
2023-02-22T03:52:17.139Z,16.6
2023-02-22T03:57:55.725Z,16.6
2023-02-22T04:03:34.160Z,16.6
2023-02-22T04:09:10.543Z,16.6
2023-02-22T04:14:48.122Z,16.6
2023-02-22T04:20:40.976Z,16.6
2023-02-22T04:26:32.947Z,16.6
2023-02-22T04:32:25.722Z,16.6
2023-02-22T04:37:49.649Z,16.6
2023-02-22T04:43:41.436Z,16.6
2023-02-22T04:49:18.634Z,16.6
2023-02-22T04:55:14.187Z,16.6
2023-02-22T05:01:06.880Z,16.6
2023-02-22T05:06:43.356Z,16.7
2023-02-22T05:12:36.732Z,16.6
2023-02-22T05:17:58.357Z,16.7
2023-02-22T05:23:50.865Z,16.7
2023-02-22T05:29:44.181Z,16.7
2023-02-22T05:35:38.113Z,16.8
2023-02-22T05:41:30.956Z,16.8
2023-02-22T05:47:24.397Z,16.8
2023-02-22T05:53:02.357Z,16.9
2023-02-22T05:58:55.191Z,16.9
2023-02-22T06:04:48.586Z,16.9
2023-02-22T06:10:24.920Z,16.9
2023-02-22T06:16:16.645Z,16.9
2023-02-22T06:21:54.858Z,16.8
2023-02-22T06:27:31.463Z,16.8
2023-02-22T06:33:09.533Z,16.8
2023-02-22T06:38:47.364Z,20.2
2023-02-22T06:44:24.230Z,19.9
2023-02-22T06:50:01.881Z,21.6
2023-02-22T06:55:41.195Z,22.8
2023-02-22T07:01:18.500Z,23.9
2023-02-22T07:06:57.180Z,25.1
2023-02-22T07:12:38.029Z,26.3
2023-02-22T07:18:15.048Z,26.8
2023-02-22T07:29:31.523Z,29.1
2023-02-22T07:35:25.450Z,30.4
2023-02-22T07:41:19.563Z,31.8
2023-02-22T07:47:12.882Z,33
2023-02-22T07:53:04.484Z,34.2
2023-02-22T07:58:56.307Z,35.4
2023-02-22T08:04:50.410Z,36.6
2023-02-22T08:10:41.542Z,32.8
2023-02-22T08:16:18.950Z,33.5
2023-02-22T08:22:13.694Z,34.8
2023-02-22T08:28:06.514Z,36.4
2023-02-22T08:34:04.961Z,37.9
2023-02-22T08:39:58.555Z,39.3
2023-02-22T08:45:50.678Z,40.6
2023-02-22T08:51:44.387Z,41.8
2023-02-22T08:57:38.501Z,42.9
2023-02-22T09:03:43.820Z,43.9
2023-02-22T09:09:36.669Z,44.9
2023-02-22T09:15:33.490Z,45.9
2023-02-22T09:21:34.976Z,46.9
2023-02-22T09:27:34.243Z,47.8
2023-02-22T09:33:30.581Z,48.6
2023-02-22T09:39:09.298Z,49.3
2023-02-22T09:45:02.387Z,49.5
2023-02-22T09:51:12.026Z,50.3
2023-02-22T09:56:49.260Z,51.1
2023-02-22T10:02:26.389Z,51.9
2023-02-22T10:08:05.401Z,52.6
2023-02-22T10:13:10.676Z,53
2023-02-22T10:18:48.563Z,53.7
2023-02-22T10:24:42.608Z,54.5
2023-02-22T10:30:25.516Z,55.3
2023-02-22T10:36:20.188Z,55.8
2023-02-22T10:41:59.103Z,56.4
2023-02-22T10:47:38.450Z,56.9
2023-02-22T10:53:15.669Z,57.6
2023-02-22T10:58:58.387Z,58.3
2023-02-22T11:04:35.195Z,58.8
2023-02-22T11:10:13.445Z,59.3
2023-02-22T11:15:52.320Z,59.9
2023-02-22T11:21:15.721Z,60.4
2023-02-22T11:27:01.800Z,60.9
2023-02-22T11:32:41.389Z,61.4
2023-02-22T11:38:48.534Z,61.9
2023-02-22T11:44:10.231Z,62.4
2023-02-22T11:49:57.920Z,62.8
2023-02-22T11:55:43.612Z,63.1
2023-02-22T12:01:25.924Z,63.4
2023-02-22T12:07:28.493Z,63.8
2023-02-22T12:13:27.284Z,64.1
2023-02-22T12:19:29.929Z,64.4
2023-02-22T12:25:33.187Z,64.6
2023-02-22T12:31:16.353Z,64.8
2023-02-22T12:36:38.886Z,64.9
2023-02-22T12:42:44.315Z,65.1
2023-02-22T12:48:36.843Z,65.1
2023-02-22T12:54:41.258Z,65.1
2023-02-22T13:00:19.420Z,65.2
2023-02-22T13:06:10.097Z,65.1
2023-02-22T13:12:02.102Z,65.1
2023-02-22T13:17:56.574Z,65
2023-02-22T13:23:33.318Z,64.9
2023-02-22T13:29:12.014Z,64.7
2023-02-22T13:35:22.073Z,64.4
2023-02-22T13:40:59.171Z,64.2
2023-02-22T13:46:53.145Z,63.8
2023-02-22T13:52:49.166Z,63.5
2023-02-22T13:58:43.498Z,63.1
2023-02-22T14:04:39.245Z,62.7
2023-02-22T14:10:37.650Z,62.2
2023-02-22T14:16:23.128Z,61.7
2023-02-22T14:22:16.239Z,61
2023-02-22T14:28:19.506Z,60.4
2023-02-22T14:34:29.531Z,59.7
2023-02-22T14:40:39.367Z,58.9
2023-02-22T14:46:36.573Z,58.1
2023-02-22T14:52:42.876Z,57.3
2023-02-22T14:58:35.595Z,56.4
2023-02-22T15:04:40.156Z,55.8
2023-02-22T15:10:35.795Z,52.6
2023-02-22T15:16:39.215Z,49.3
2023-02-22T15:22:35.767Z,47.1
2023-02-22T15:28:24.811Z,45.6
2023-02-22T15:34:39.937Z,44.7
2023-02-22T15:40:34.268Z,43.8
2023-02-22T15:46:36.302Z,43.1
2023-02-22T15:52:29.435Z,42.4
2023-02-22T15:58:17.549Z,41.9
2023-02-22T16:04:12.679Z,41.4
2023-02-22T16:10:15.918Z,41
2023-02-22T16:16:22.449Z,40.6
2023-02-22T16:22:34.198Z,40.2
2023-02-22T16:28:40.468Z,39.7
2023-02-22T16:34:32.288Z,39.4
2023-02-22T16:40:09.950Z,38.9
2023-02-22T16:45:48.126Z,38.6
2023-02-22T16:51:26.933Z,38.3
2023-02-22T16:57:20.574Z,38.1
2023-02-22T17:02:57.709Z,37.9
2023-02-22T17:08:50.994Z,37.6
2023-02-22T17:14:44.407Z,37
2023-02-22T17:20:37.123Z,34.2
2023-02-22T17:25:59.933Z,32.4
2023-02-22T17:31:37.753Z,31.5
2023-02-22T17:37:32.234Z,31
2023-02-22T17:43:25.929Z,30.7
2023-02-22T17:49:18.782Z,30.4
2023-02-22T17:55:52.155Z,30.2
2023-02-22T18:01:14.063Z,29.9
2023-02-22T18:06:51.854Z,29.9
2023-02-22T18:12:29.828Z,29.8
2023-02-22T18:18:07.864Z,29.6
2023-02-22T18:23:45.902Z,29.6
2023-02-22T18:29:51.418Z,29.5
2023-02-22T18:35:45.628Z,29.5
2023-02-22T18:41:39.077Z,29.4
2023-02-22T18:47:33.177Z,29.4
2023-02-22T18:53:27.515Z,29.3
2023-02-22T18:59:24.405Z,29.1
2023-02-22T19:05:18.434Z,28.6
2023-02-22T19:11:13.357Z,27.1
2023-02-22T19:17:07.037Z,25.9
2023-02-22T19:23:05.886Z,25.1
2023-02-22T19:29:00.452Z,24.5
2023-02-22T19:34:54.568Z,24.2
2023-02-22T19:40:48.985Z,23.9
2023-02-22T19:46:47.752Z,23.6
2023-02-22T19:52:41.476Z,23.5
2023-02-22T19:58:35.166Z,23.3
2023-02-22T20:04:30.121Z,22.9
2023-02-22T20:10:23.356Z,22.6
2023-02-22T20:16:00.384Z,22.3
2023-02-22T20:21:54.694Z,22.1
2023-02-22T20:27:48.187Z,21.9
2023-02-22T20:33:30.778Z,21.8
2023-02-22T20:39:25.195Z,21.7
2023-02-22T20:45:01.843Z,21.6
2023-02-22T20:50:39.640Z,21.6
2023-02-22T20:56:33.639Z,21.5
2023-02-22T21:02:29.538Z,21.4
2023-02-22T21:08:24.834Z,21.4
2023-02-22T21:14:21.316Z,21.4
2023-02-22T21:20:15.213Z,21.4
2023-02-22T21:26:07.947Z,21.4
2023-02-22T21:32:01.505Z,21.3
2023-02-22T21:37:54.410Z,21.3
2023-02-22T21:43:47.678Z,21.3
2023-02-22T21:49:41.473Z,21.3
2023-02-22T21:55:34.032Z,21.3
2023-02-22T22:01:26.894Z,21.3
2023-02-22T22:07:20.755Z,21.3
2023-02-22T22:13:20.275Z,21.3
2023-02-22T22:19:11.846Z,21.3
2023-02-22T22:25:05.703Z,21.3
2023-02-22T22:30:58.633Z,21.3
2023-02-22T22:36:51.241Z,21.3
2023-02-22T22:42:29.040Z,21.3
2023-02-22T22:48:06.991Z,21.3
2023-02-22T22:53:45.666Z,21.3
2023-02-22T22:59:39.197Z,21.3
2023-02-22T23:05:33.315Z,21.3
2023-02-22T23:11:26.107Z,21.3
2023-02-22T23:17:20.462Z,21.3
2023-02-22T23:23:12.972Z,21.3
2023-02-22T23:28:49.141Z,21.3
2023-02-22T23:34:44.757Z,21.3
2023-02-22T23:40:39.559Z,21.3
2023-02-22T23:46:17.387Z,21.3
2023-02-22T23:51:55.942Z,21.3
2023-02-22T23:57:48.704Z,21.3
